createdAt,value
2024-03-16T00:02:36.022Z,7.61
2024-03-16T00:05:24.020Z,7.44
2024-03-16T00:08:12.024Z,7.61
2024-03-16T00:11:01.117Z,8.30
2024-03-16T00:13:49.048Z,8.43
2024-03-16T00:16:37.645Z,7.64
2024-03-16T00:19:25.516Z,8.28
2024-03-16T00:22:13.804Z,8.55
2024-03-16T00:25:02.446Z,7.95
2024-03-16T00:27:54.115Z,8.03
2024-03-16T00:30:42.304Z,8.13
2024-03-16T00:33:30.485Z,8.14
2024-03-16T00:36:18.787Z,7.71
2024-03-16T00:39:16.810Z,7.48
2024-03-16T00:42:05.298Z,7.93
2024-03-16T00:44:53.627Z,8.37
2024-03-16T00:47:41.463Z,7.64
2024-03-16T00:50:29.543Z,7.97
2024-03-16T00:53:19.188Z,8.07
2024-03-16T00:56:07.395Z,8.31
2024-03-16T00:58:55.407Z,7.72
2024-03-16T01:01:44.086Z,7.91
2024-03-16T01:04:34.086Z,8.27
2024-03-16T01:07:22.171Z,8.02
2024-03-16T01:10:13.031Z,7.88
2024-03-16T01:13:01.081Z,7.91
2024-03-16T01:15:49.135Z,8.15
2024-03-16T01:18:37.250Z,7.88
2024-03-16T01:21:25.583Z,7.45
2024-03-16T01:24:13.724Z,6.85
2024-03-16T01:27:04.818Z,7.13
2024-03-16T01:29:52.575Z,7.05
2024-03-16T01:32:40.549Z,6.83
2024-03-16T01:35:28.400Z,6.76
2024-03-16T01:38:16.723Z,7.11
2024-03-16T01:41:04.804Z,7.01
2024-03-16T01:43:52.900Z,7.15
2024-03-16T01:46:42.801Z,7.20
2024-03-16T01:49:30.906Z,7.19
2024-03-16T01:52:18.925Z,7.38
2024-03-16T01:55:07.135Z,7.19
2024-03-16T01:57:55.198Z,7.10
2024-03-16T02:00:48.707Z,6.70
2024-03-16T02:03:37.344Z,6.66
2024-03-16T02:06:25.881Z,6.85
2024-03-16T02:09:13.914Z,7.32
2024-03-16T02:12:01.765Z,7.21
2024-03-16T02:14:49.687Z,7.19
2024-03-16T02:17:37.975Z,7.17
2024-03-16T02:20:27.850Z,7.00
2024-03-16T02:23:16.661Z,6.59
2024-03-16T02:26:06.050Z,6.61
2024-03-16T02:28:54.066Z,6.72
2024-03-16T02:31:42.677Z,6.48
2024-03-16T02:34:30.586Z,6.78
2024-03-16T02:37:20.252Z,6.68
2024-03-16T02:40:12.813Z,6.75
2024-03-16T02:43:00.982Z,6.62
2024-03-16T02:45:48.978Z,6.62
2024-03-16T02:48:36.991Z,6.54
2024-03-16T02:51:25.140Z,6.39
2024-03-16T02:54:13.401Z,6.29
2024-03-16T02:57:05.160Z,6.12
2024-03-16T02:59:53.034Z,6.45
2024-03-16T03:02:41.035Z,6.05
2024-03-16T03:05:29.118Z,6.47
2024-03-16T03:08:17.133Z,6.10
2024-03-16T03:11:05.736Z,6.07
2024-03-16T03:13:53.698Z,5.82
2024-03-16T03:16:41.676Z,5.79
2024-03-16T03:19:29.554Z,5.60
2024-03-16T03:22:17.824Z,5.68
2024-03-16T03:25:06.581Z,5.43
2024-03-16T03:27:54.701Z,5.20
2024-03-16T03:30:43.437Z,5.37
2024-03-16T03:33:31.999Z,5.19
2024-03-16T03:36:19.909Z,5.52
2024-03-16T03:39:08.247Z,5.74
2024-03-16T03:41:56.262Z,5.63
2024-03-16T03:44:51.685Z,5.52
2024-03-16T03:47:51.652Z,5.70
2024-03-16T03:50:40.040Z,5.66
2024-03-16T03:53:28.163Z,5.48
2024-03-16T03:56:16.230Z,5.22
2024-03-16T03:59:04.203Z,5.20
2024-03-16T04:01:52.327Z,4.85
2024-03-16T04:04:41.779Z,5.12
2024-03-16T04:07:29.851Z,5.27
2024-03-16T04:10:17.784Z,5.43
2024-03-16T04:13:06.086Z,4.93
2024-03-16T04:15:54.052Z,4.93
2024-03-16T04:18:42.037Z,4.81
2024-03-16T04:21:30.058Z,4.85
2024-03-16T04:24:18.073Z,4.42
2024-03-16T04:27:06.407Z,4.05
2024-03-16T04:29:54.556Z,4.59
2024-03-16T04:32:42.862Z,4.84
2024-03-16T04:35:30.891Z,5.15
2024-03-16T04:38:18.858Z,5.25
2024-03-16T04:41:07.089Z,5.52
2024-03-16T04:43:55.033Z,5.56
2024-03-16T04:46:42.993Z,5.29
2024-03-16T04:49:30.897Z,4.88
2024-03-16T04:52:18.944Z,4.75
2024-03-16T04:55:07.395Z,5.21
2024-03-16T04:57:55.524Z,4.74
2024-03-16T05:00:43.445Z,4.52
2024-03-16T05:03:32.149Z,4.19
2024-03-16T05:06:20.033Z,4.66
2024-03-16T05:09:09.413Z,5.12
2024-03-16T05:11:57.539Z,5.19
2024-03-16T05:14:45.440Z,5.66
2024-03-16T05:17:33.787Z,5.19
2024-03-16T05:20:22.897Z,5.50
2024-03-16T05:23:10.868Z,5.43
2024-03-16T05:26:00.342Z,4.90
2024-03-16T05:28:48.871Z,4.03
2024-03-16T05:31:37.354Z,4.48
2024-03-16T05:34:25.523Z,4.61
2024-03-16T05:37:13.542Z,4.26
2024-03-16T05:40:01.724Z,4.11
2024-03-16T05:42:49.659Z,5.21
2024-03-16T05:45:37.597Z,5.81
2024-03-16T05:48:25.420Z,4.76
2024-03-16T05:51:14.059Z,4.78
2024-03-16T05:54:05.283Z,5.87
2024-03-16T05:56:53.613Z,5.58
2024-03-16T05:59:41.503Z,5.68
2024-03-16T06:02:29.471Z,5.19
2024-03-16T06:05:17.400Z,4.94
2024-03-16T06:08:06.236Z,5.12
2024-03-16T06:10:54.381Z,5.10
2024-03-16T06:13:42.525Z,5.19
2024-03-16T06:16:30.949Z,4.87
2024-03-16T06:19:19.049Z,6.15
2024-03-16T06:22:09.011Z,6.48
2024-03-16T06:24:56.960Z,6.26
2024-03-16T06:27:51.296Z,5.83
2024-03-16T06:30:40.920Z,5.39
2024-03-16T06:33:32.491Z,5.53
2024-03-16T06:36:21.243Z,5.40
2024-03-16T06:39:14.054Z,5.81
2024-03-16T06:42:02.125Z,5.10
2024-03-16T06:44:51.540Z,5.66
2024-03-16T06:47:39.694Z,5.74
2024-03-16T06:50:27.757Z,5.54
2024-03-16T06:53:16.379Z,5.58
2024-03-16T06:56:05.494Z,5.87
2024-03-16T06:58:53.604Z,5.92
2024-03-16T07:01:41.587Z,6.29
2024-03-16T07:04:30.037Z,6.48
2024-03-16T07:07:18.003Z,6.68
2024-03-16T07:10:07.678Z,6.48
2024-03-16T07:12:56.021Z,6.48
2024-03-16T07:15:45.363Z,5.84
2024-03-16T07:18:34.424Z,6.27
2024-03-16T07:21:25.796Z,6.47
2024-03-16T07:24:16.481Z,6.33
2024-03-16T07:27:08.635Z,6.90
2024-03-16T07:29:57.472Z,7.22
2024-03-16T07:32:45.430Z,6.26
2024-03-16T07:35:33.350Z,6.17
2024-03-16T07:38:21.220Z,6.33
2024-03-16T07:41:10.088Z,6.58
2024-03-16T07:43:57.944Z,7.26
2024-03-16T07:46:48.103Z,7.77
2024-03-16T07:49:36.156Z,7.20
2024-03-16T07:52:24.247Z,6.69
2024-03-16T07:55:13.168Z,6.43
2024-03-16T07:58:01.429Z,6.10
2024-03-16T08:00:49.593Z,6.88
2024-03-16T08:03:38.017Z,6.66
2024-03-16T08:06:26.019Z,7.31
2024-03-16T08:09:14.324Z,7.26
2024-03-16T08:12:02.326Z,6.99
2024-03-16T08:14:50.184Z,7.18
2024-03-16T08:17:38.076Z,7.43
2024-03-16T08:20:26.358Z,7.21
2024-03-16T08:23:14.291Z,7.77
2024-03-16T08:26:02.360Z,7.87
2024-03-16T08:28:50.246Z,7.57
2024-03-16T08:31:38.116Z,7.34
2024-03-16T08:34:26.623Z,7.07
2024-03-16T08:37:17.426Z,7.02
2024-03-16T08:40:13.524Z,7.36
2024-03-16T08:43:02.190Z,7.34
2024-03-16T08:45:50.274Z,7.21
2024-03-16T08:48:38.352Z,7.62
2024-03-16T08:51:26.890Z,7.31
2024-03-16T08:54:15.035Z,7.18
2024-03-16T08:57:03.445Z,7.72
2024-03-16T08:59:52.521Z,7.79
2024-03-16T09:02:40.386Z,7.90
2024-03-16T09:05:28.222Z,7.35
2024-03-16T09:08:16.122Z,7.57
2024-03-16T09:11:04.019Z,7.61
2024-03-16T09:13:52.104Z,7.75
2024-03-16T09:16:42.086Z,7.82
2024-03-16T09:19:30.398Z,7.94
2024-03-16T09:22:18.448Z,7.83
2024-03-16T09:25:07.772Z,7.78
2024-03-16T09:27:55.947Z,7.73
2024-03-16T09:30:46.437Z,8.15
2024-03-16T09:33:34.852Z,8.45
2024-03-16T09:36:22.890Z,7.80
2024-03-16T09:39:11.936Z,7.94
2024-03-16T09:42:00.000Z,8.30
